sensor_id;sensor_type;location;lat;lon;timestamp;P1;durP1;ratioP1;P2;durP2;ratioP2
62419;SDS011;48460;51.616;5.426;2022-10-12T00:01:24;17.17;;;9.00;;
62419;SDS011;48460;51.616;5.426;2022-10-12T00:03:50;19.73;;;8.68;;
62419;SDS011;48460;51.616;5.426;2022-10-12T00:06:20;20.30;;;8.90;;
62419;SDS011;48460;51.616;5.426;2022-10-12T00:11:15;14.55;;;7.10;;
62419;SDS011;48460;51.616;5.426;2022-10-12T00:13:42;15.57;;;6.68;;
62419;SDS011;48460;51.616;5.426;2022-10-12T00:16:08;13.20;;;6.78;;
62419;SDS011;48460;51.616;5.426;2022-10-12T00:18:36;21.80;;;7.53;;
62419;SDS011;48460;51.616;5.426;2022-10-12T00:23:33;14.15;;;7.40;;
62419;SDS011;48460;51.616;5.426;2022-10-12T00:26:04;16.60;;;7.68;;
62419;SDS011;48460;51.616;5.426;2022-10-12T00:28:31;15.25;;;8.18;;
62419;SDS011;48460;51.616;5.426;2022-10-12T00:30:58;17.88;;;7.85;;
62419;SDS011;48460;51.616;5.426;2022-10-12T00:33:23;20.05;;;8.27;;
62419;SDS011;48460;51.616;5.426;2022-10-12T00:35:51;21.70;;;8.18;;
62419;SDS011;48460;51.616;5.426;2022-10-12T00:38:19;16.80;;;8.10;;
62419;SDS011;48460;51.616;5.426;2022-10-12T00:40:44;20.10;;;8.75;;
62419;SDS011;48460;51.616;5.426;2022-10-12T00:46:19;17.58;;;7.82;;
62419;SDS011;48460;51.616;5.426;2022-10-12T00:48:53;15.35;;;7.72;;
62419;SDS011;48460;51.616;5.426;2022-10-12T00:51:21;14.90;;;7.30;;
62419;SDS011;48460;51.616;5.426;2022-10-12T00:53:57;16.70;;;7.65;;
62419;SDS011;48460;51.616;5.426;2022-10-12T00:56:28;19.17;;;8.10;;
62419;SDS011;48460;51.616;5.426;2022-10-12T00:58:57;16.85;;;7.65;;
62419;SDS011;48460;51.616;5.426;2022-10-12T01:01:26;17.50;;;8.35;;
62419;SDS011;48460;51.616;5.426;2022-10-12T01:03:52;17.05;;;7.97;;
62419;SDS011;48460;51.616;5.426;2022-10-12T01:06:18;15.82;;;7.57;;
62419;SDS011;48460;51.616;5.426;2022-10-12T01:08:44;21.90;;;7.88;;
62419;SDS011;48460;51.616;5.426;2022-10-12T01:11:10;16.30;;;7.47;;
62419;SDS011;48460;51.616;5.426;2022-10-12T01:13:36;16.95;;;8.00;;
62419;SDS011;48460;51.616;5.426;2022-10-12T01:16:08;15.15;;;7.45;;
62419;SDS011;48460;51.616;5.426;2022-10-12T01:21:26;19.85;;;7.78;;
62419;SDS011;48460;51.616;5.426;2022-10-12T01:24:14;15.35;;;7.32;;
62419;SDS011;48460;51.616;5.426;2022-10-12T01:27:07;16.65;;;7.30;;
62419;SDS011;48460;51.616;5.426;2022-10-12T01:38:10;13.85;;;7.28;;
62419;SDS011;48460;51.616;5.426;2022-10-12T01:40:56;15.90;;;7.30;;
62419;SDS011;48460;51.616;5.426;2022-10-12T01:43:40;17.00;;;7.63;;
62419;SDS011;48460;51.616;5.426;2022-10-12T01:48:46;17.05;;;7.57;;
62419;SDS011;48460;51.616;5.426;2022-10-12T01:51:28;19.20;;;8.30;;
62419;SDS011;48460;51.616;5.426;2022-10-12T01:57:20;13.90;;;6.97;;
62419;SDS011;48460;51.616;5.426;2022-10-12T02:00:15;18.75;;;7.28;;
62419;SDS011;48460;51.616;5.426;2022-10-12T02:02:49;17.13;;;7.60;;
62419;SDS011;48460;51.616;5.426;2022-10-12T02:05:27;21.80;;;7.97;;
62419;SDS011;48460;51.616;5.426;2022-10-12T02:11:05;15.07;;;7.63;;
62419;SDS011;48460;51.616;5.426;2022-10-12T02:13:38;16.92;;;7.90;;
62419;SDS011;48460;51.616;5.426;2022-10-12T02:16:09;15.18;;;7.43;;
62419;SDS011;48460;51.616;5.426;2022-10-12T02:18:39;13.98;;;7.22;;
62419;SDS011;48460;51.616;5.426;2022-10-12T02:21:08;15.85;;;7.80;;
62419;SDS011;48460;51.616;5.426;2022-10-12T02:23:39;18.13;;;8.27;;
62419;SDS011;48460;51.616;5.426;2022-10-12T02:26:05;17.92;;;7.25;;
62419;SDS011;48460;51.616;5.426;2022-10-12T02:28:32;17.58;;;7.65;;
62419;SDS011;48460;51.616;5.426;2022-10-12T02:31:02;17.85;;;7.68;;
62419;SDS011;48460;51.616;5.426;2022-10-12T02:33:39;14.60;;;7.60;;
62419;SDS011;48460;51.616;5.426;2022-10-12T02:36:11;15.00;;;7.25;;
62419;SDS011;48460;51.616;5.426;2022-10-12T02:38:45;15.27;;;7.68;;
62419;SDS011;48460;51.616;5.426;2022-10-12T02:41:22;15.63;;;7.53;;
62419;SDS011;48460;51.616;5.426;2022-10-12T02:43:58;23.38;;;8.25;;
62419;SDS011;48460;51.616;5.426;2022-10-12T02:46:26;17.42;;;7.47;;
62419;SDS011;48460;51.616;5.426;2022-10-12T02:48:53;18.00;;;7.75;;
62419;SDS011;48460;51.616;5.426;2022-10-12T02:51:21;13.90;;;7.10;;
62419;SDS011;48460;51.616;5.426;2022-10-12T02:53:48;16.52;;;7.38;;
62419;SDS011;48460;51.616;5.426;2022-10-12T02:56:14;15.05;;;7.10;;
62419;SDS011;48460;51.616;5.426;2022-10-12T02:58:41;15.95;;;7.15;;
62419;SDS011;48460;51.616;5.426;2022-10-12T03:01:08;16.20;;;7.38;;
62419;SDS011;48460;51.616;5.426;2022-10-12T03:03:33;15.13;;;7.13;;
62419;SDS011;48460;51.616;5.426;2022-10-12T03:05:59;15.40;;;7.60;;
62419;SDS011;48460;51.616;5.426;2022-10-12T03:08:24;14.85;;;7.00;;
62419;SDS011;48460;51.616;5.426;2022-10-12T03:10:49;12.88;;;7.03;;
62419;SDS011;48460;51.616;5.426;2022-10-12T03:13:15;16.40;;;7.03;;
62419;SDS011;48460;51.616;5.426;2022-10-12T03:15:40;12.13;;;6.57;;
62419;SDS011;48460;51.616;5.426;2022-10-12T03:18:06;15.05;;;7.30;;
62419;SDS011;48460;51.616;5.426;2022-10-12T03:20:31;14.75;;;6.85;;
62419;SDS011;48460;51.616;5.426;2022-10-12T03:22:58;14.25;;;7.20;;
62419;SDS011;48460;51.616;5.426;2022-10-12T03:25:23;14.32;;;6.95;;
62419;SDS011;48460;51.616;5.426;2022-10-12T03:27:49;15.75;;;7.40;;
62419;SDS011;48460;51.616;5.426;2022-10-12T03:30:14;12.73;;;7.07;;
62419;SDS011;48460;51.616;5.426;2022-10-12T03:32:40;15.45;;;6.95;;
62419;SDS011;48460;51.616;5.426;2022-10-12T03:35:05;14.10;;;6.72;;
62419;SDS011;48460;51.616;5.426;2022-10-12T03:37:31;13.63;;;6.82;;
62419;SDS011;48460;51.616;5.426;2022-10-12T03:39:56;13.68;;;6.82;;
62419;SDS011;48460;51.616;5.426;2022-10-12T03:42:22;13.75;;;7.07;;
62419;SDS011;48460;51.616;5.426;2022-10-12T03:44:48;10.55;;;6.05;;
62419;SDS011;48460;51.616;5.426;2022-10-12T03:47:13;16.80;;;6.70;;
62419;SDS011;48460;51.616;5.426;2022-10-12T03:49:39;16.95;;;7.00;;
62419;SDS011;48460;51.616;5.426;2022-10-12T03:52:04;13.25;;;6.78;;
62419;SDS011;48460;51.616;5.426;2022-10-12T03:54:30;16.17;;;6.80;;
62419;SDS011;48460;51.616;5.426;2022-10-12T03:56:55;11.68;;;6.40;;
62419;SDS011;48460;51.616;5.426;2022-10-12T03:59:21;17.65;;;7.07;;
62419;SDS011;48460;51.616;5.426;2022-10-12T04:01:46;14.63;;;6.65;;
62419;SDS011;48460;51.616;5.426;2022-10-12T04:04:12;14.30;;;6.85;;
62419;SDS011;48460;51.616;5.426;2022-10-12T04:06:37;13.93;;;6.43;;
62419;SDS011;48460;51.616;5.426;2022-10-12T04:09:03;12.18;;;6.68;;
62419;SDS011;48460;51.616;5.426;2022-10-12T04:11:28;16.15;;;7.03;;
62419;SDS011;48460;51.616;5.426;2022-10-12T04:13:53;12.73;;;6.55;;
62419;SDS011;48460;51.616;5.426;2022-10-12T04:16:19;15.85;;;6.68;;
62419;SDS011;48460;51.616;5.426;2022-10-12T04:18:44;16.23;;;7.30;;
62419;SDS011;48460;51.616;5.426;2022-10-12T04:21:11;17.90;;;6.95;;
62419;SDS011;48460;51.616;5.426;2022-10-12T04:23:39;14.35;;;6.72;;
62419;SDS011;48460;51.616;5.426;2022-10-12T04:26:05;11.23;;;6.85;;
62419;SDS011;48460;51.616;5.426;2022-10-12T04:28:31;12.40;;;6.57;;
62419;SDS011;48460;51.616;5.426;2022-10-12T04:30:56;12.52;;;6.50;;
62419;SDS011;48460;51.616;5.426;2022-10-12T04:33:22;13.20;;;6.72;;
62419;SDS011;48460;51.616;5.426;2022-10-12T04:35:47;12.23;;;6.30;;
62419;SDS011;48460;51.616;5.426;2022-10-12T04:38:13;14.18;;;5.97;;
62419;SDS011;48460;51.616;5.426;2022-10-12T04:40:38;11.80;;;6.55;;
62419;SDS011;48460;51.616;5.426;2022-10-12T04:43:04;13.50;;;6.47;;
62419;SDS011;48460;51.616;5.426;2022-10-12T04:45:29;14.05;;;6.38;;
62419;SDS011;48460;51.616;5.426;2022-10-12T04:47:55;14.27;;;6.43;;
62419;SDS011;48460;51.616;5.426;2022-10-12T04:50:21;13.20;;;6.00;;
62419;SDS011;48460;51.616;5.426;2022-10-12T04:52:46;16.73;;;6.45;;
62419;SDS011;48460;51.616;5.426;2022-10-12T04:55:12;15.32;;;6.43;;
62419;SDS011;48460;51.616;5.426;2022-10-12T04:57:37;12.88;;;6.10;;
62419;SDS011;48460;51.616;5.426;2022-10-12T05:00:03;10.60;;;5.95;;
62419;SDS011;48460;51.616;5.426;2022-10-12T05:02:29;12.45;;;6.25;;
62419;SDS011;48460;51.616;5.426;2022-10-12T05:04:54;20.17;;;6.65;;
62419;SDS011;48460;51.616;5.426;2022-10-12T05:07:20;12.18;;;6.10;;
62419;SDS011;48460;51.616;5.426;2022-10-12T05:09:45;15.40;;;6.22;;
62419;SDS011;48460;51.616;5.426;2022-10-12T05:12:11;11.98;;;6.03;;
62419;SDS011;48460;51.616;5.426;2022-10-12T05:14:36;20.17;;;6.68;;
62419;SDS011;48460;51.616;5.426;2022-10-12T05:17:02;12.98;;;5.97;;
62419;SDS011;48460;51.616;5.426;2022-10-12T05:19:29;18.98;;;6.28;;
62419;SDS011;48460;51.616;5.426;2022-10-12T05:21:54;11.57;;;7.50;;
62419;SDS011;48460;51.616;5.426;2022-10-12T05:24:20;13.70;;;7.13;;
62419;SDS011;48460;51.616;5.426;2022-10-12T05:26:45;12.32;;;6.10;;
62419;SDS011;48460;51.616;5.426;2022-10-12T05:29:11;12.63;;;6.60;;
62419;SDS011;48460;51.616;5.426;2022-10-12T05:31:36;12.90;;;6.60;;
62419;SDS011;48460;51.616;5.426;2022-10-12T05:34:02;11.93;;;6.00;;
62419;SDS011;48460;51.616;5.426;2022-10-12T05:36:27;16.13;;;6.82;;
62419;SDS011;48460;51.616;5.426;2022-10-12T05:38:53;12.88;;;6.10;;
62419;SDS011;48460;51.616;5.426;2022-10-12T05:41:18;14.18;;;6.28;;
62419;SDS011;48460;51.616;5.426;2022-10-12T05:43:43;11.65;;;6.43;;
62419;SDS011;48460;51.616;5.426;2022-10-12T05:46:09;13.35;;;6.90;;
62419;SDS011;48460;51.616;5.426;2022-10-12T05:48:34;13.80;;;6.30;;
62419;SDS011;48460;51.616;5.426;2022-10-12T05:51:00;12.35;;;6.20;;
62419;SDS011;48460;51.616;5.426;2022-10-12T05:53:25;12.65;;;6.07;;
62419;SDS011;48460;51.616;5.426;2022-10-12T05:55:54;14.30;;;6.70;;
62419;SDS011;48460;51.616;5.426;2022-10-12T05:58:21;17.73;;;7.37;;
62419;SDS011;48460;51.616;5.426;2022-10-12T06:00:48;13.55;;;6.45;;
62419;SDS011;48460;51.616;5.426;2022-10-12T06:03:16;16.17;;;6.90;;
62419;SDS011;48460;51.616;5.426;2022-10-12T06:05:41;14.95;;;7.10;;
62419;SDS011;48460;51.616;5.426;2022-10-12T06:08:08;13.55;;;6.82;;
62419;SDS011;48460;51.616;5.426;2022-10-12T06:10:34;14.52;;;6.82;;
62419;SDS011;48460;51.616;5.426;2022-10-12T06:13:00;14.52;;;7.10;;
62419;SDS011;48460;51.616;5.426;2022-10-12T06:15:26;16.80;;;7.00;;
62419;SDS011;48460;51.616;5.426;2022-10-12T06:17:52;12.48;;;6.68;;
62419;SDS011;48460;51.616;5.426;2022-10-12T06:20:17;14.52;;;6.95;;
62419;SDS011;48460;51.616;5.426;2022-10-12T06:22:44;14.57;;;6.45;;
62419;SDS011;48460;51.616;5.426;2022-10-12T06:25:09;15.35;;;6.25;;
62419;SDS011;48460;51.616;5.426;2022-10-12T06:27:35;15.57;;;6.97;;
62419;SDS011;48460;51.616;5.426;2022-10-12T06:30:00;18.70;;;7.20;;
62419;SDS011;48460;51.616;5.426;2022-10-12T06:32:26;22.05;;;7.53;;
62419;SDS011;48460;51.616;5.426;2022-10-12T06:34:51;15.10;;;7.13;;
62419;SDS011;48460;51.616;5.426;2022-10-12T06:37:17;13.63;;;7.40;;
62419;SDS011;48460;51.616;5.426;2022-10-12T06:39:43;22.88;;;7.78;;
62419;SDS011;48460;51.616;5.426;2022-10-12T06:42:09;19.52;;;8.75;;
62419;SDS011;48460;51.616;5.426;2022-10-12T06:44:35;22.00;;;7.88;;
62419;SDS011;48460;51.616;5.426;2022-10-12T06:47:00;17.13;;;7.78;;
62419;SDS011;48460;51.616;5.426;2022-10-12T06:49:25;22.25;;;7.93;;
62419;SDS011;48460;51.616;5.426;2022-10-12T06:51:51;24.95;;;8.00;;
62419;SDS011;48460;51.616;5.426;2022-10-12T06:54:16;22.23;;;8.05;;
62419;SDS011;48460;51.616;5.426;2022-10-12T06:56:43;27.75;;;8.20;;
62419;SDS011;48460;51.616;5.426;2022-10-12T06:59:10;22.83;;;8.45;;
62419;SDS011;48460;51.616;5.426;2022-10-12T07:01:36;18.00;;;7.78;;
62419;SDS011;48460;51.616;5.426;2022-10-12T07:04:02;25.60;;;8.77;;
62419;SDS011;48460;51.616;5.426;2022-10-12T07:06:27;24.50;;;8.73;;
62419;SDS011;48460;51.616;5.426;2022-10-12T07:08:53;22.52;;;8.50;;
62419;SDS011;48460;51.616;5.426;2022-10-12T07:11:19;27.52;;;9.48;;
62419;SDS011;48460;51.616;5.426;2022-10-12T07:13:44;23.23;;;9.55;;
62419;SDS011;48460;51.616;5.426;2022-10-12T07:16:10;25.83;;;9.25;;
62419;SDS011;48460;51.616;5.426;2022-10-12T07:18:35;26.40;;;9.30;;
62419;SDS011;48460;51.616;5.426;2022-10-12T07:21:01;24.83;;;9.90;;
62419;SDS011;48460;51.616;5.426;2022-10-12T07:23:27;25.40;;;10.48;;
62419;SDS011;48460;51.616;5.426;2022-10-12T07:25:53;27.30;;;9.98;;
62419;SDS011;48460;51.616;5.426;2022-10-12T07:28:19;16.65;;;9.00;;
62419;SDS011;48460;51.616;5.426;2022-10-12T07:30:45;22.35;;;10.02;;
62419;SDS011;48460;51.616;5.426;2022-10-12T07:33:11;31.27;;;10.20;;
62419;SDS011;48460;51.616;5.426;2022-10-12T07:35:36;24.20;;;9.75;;
62419;SDS011;48460;51.616;5.426;2022-10-12T07:38:02;23.70;;;10.57;;
62419;SDS011;48460;51.616;5.426;2022-10-12T07:40:28;23.98;;;10.25;;
62419;SDS011;48460;51.616;5.426;2022-10-12T07:42:54;23.45;;;10.43;;
62419;SDS011;48460;51.616;5.426;2022-10-12T07:45:19;23.02;;;10.88;;
62419;SDS011;48460;51.616;5.426;2022-10-12T07:47:45;27.42;;;11.77;;
62419;SDS011;48460;51.616;5.426;2022-10-12T07:50:11;28.83;;;11.30;;
62419;SDS011;48460;51.616;5.426;2022-10-12T07:52:37;31.98;;;12.27;;
62419;SDS011;48460;51.616;5.426;2022-10-12T07:55:02;27.58;;;12.15;;
62419;SDS011;48460;51.616;5.426;2022-10-12T07:57:28;32.00;;;13.55;;
62419;SDS011;48460;51.616;5.426;2022-10-12T07:59:53;26.70;;;12.43;;
62419;SDS011;48460;51.616;5.426;2022-10-12T08:02:19;35.45;;;14.15;;
62419;SDS011;48460;51.616;5.426;2022-10-12T08:04:45;31.55;;;13.45;;
62419;SDS011;48460;51.616;5.426;2022-10-12T08:07:10;29.42;;;13.70;;
62419;SDS011;48460;51.616;5.426;2022-10-12T08:09:37;31.45;;;14.40;;
62419;SDS011;48460;51.616;5.426;2022-10-12T08:12:02;42.33;;;14.27;;
62419;SDS011;48460;51.616;5.426;2022-10-12T08:14:28;32.42;;;14.65;;
62419;SDS011;48460;51.616;5.426;2022-10-12T08:16:53;32.38;;;14.57;;
62419;SDS011;48460;51.616;5.426;2022-10-12T08:19:19;33.55;;;13.90;;
62419;SDS011;48460;51.616;5.426;2022-10-12T08:21:44;30.40;;;13.80;;
62419;SDS011;48460;51.616;5.426;2022-10-12T08:24:10;36.22;;;15.93;;
62419;SDS011;48460;51.616;5.426;2022-10-12T08:26:37;31.65;;;13.63;;
62419;SDS011;48460;51.616;5.426;2022-10-12T08:29:03;33.58;;;13.60;;
62419;SDS011;48460;51.616;5.426;2022-10-12T08:31:30;35.13;;;13.55;;
62419;SDS011;48460;51.616;5.426;2022-10-12T08:33:56;41.03;;;13.38;;
62419;SDS011;48460;51.616;5.426;2022-10-12T08:36:23;33.47;;;13.27;;
62419;SDS011;48460;51.616;5.426;2022-10-12T08:38:49;33.67;;;13.38;;
62419;SDS011;48460;51.616;5.426;2022-10-12T08:46:33;35.15;;;14.93;;
62419;SDS011;48460;51.616;5.426;2022-10-12T08:49:06;34.55;;;14.57;;
62419;SDS011;48460;51.616;5.426;2022-10-12T08:51:37;34.50;;;14.93;;
62419;SDS011;48460;51.616;5.426;2022-10-12T08:54:18;35.85;;;15.60;;
62419;SDS011;48460;51.616;5.426;2022-10-12T08:56:46;29.85;;;14.93;;
62419;SDS011;48460;51.616;5.426;2022-10-12T08:59:13;31.08;;;15.57;;
62419;SDS011;48460;51.616;5.426;2022-10-12T09:01:50;37.88;;;16.85;;
62419;SDS011;48460;51.616;5.426;2022-10-12T09:04:38;34.67;;;15.18;;
62419;SDS011;48460;51.616;5.426;2022-10-12T09:07:11;37.28;;;15.52;;
62419;SDS011;48460;51.616;5.426;2022-10-12T09:17:57;32.88;;;15.93;;
62419;SDS011;48460;51.616;5.426;2022-10-12T09:20:28;40.58;;;17.23;;
62419;SDS011;48460;51.616;5.426;2022-10-12T09:26:14;37.58;;;17.05;;
62419;SDS011;48460;51.616;5.426;2022-10-12T09:33:59;38.95;;;17.50;;
62419;SDS011;48460;51.616;5.426;2022-10-12T09:36:25;42.25;;;17.15;;
62419;SDS011;48460;51.616;5.426;2022-10-12T09:38:54;43.33;;;18.27;;
62419;SDS011;48460;51.616;5.426;2022-10-12T09:41:28;40.53;;;17.67;;
62419;SDS011;48460;51.616;5.426;2022-10-12T09:43:57;43.38;;;18.60;;
62419;SDS011;48460;51.616;5.426;2022-10-12T09:46:30;33.35;;;17.45;;
62419;SDS011;48460;51.616;5.426;2022-10-12T09:49:04;38.83;;;17.80;;
62419;SDS011;48460;51.616;5.426;2022-10-12T09:51:30;44.85;;;19.63;;
62419;SDS011;48460;51.616;5.426;2022-10-12T09:53:57;41.45;;;18.48;;
62419;SDS011;48460;51.616;5.426;2022-10-12T09:56:38;34.75;;;17.23;;
62419;SDS011;48460;51.616;5.426;2022-10-12T09:59:15;38.38;;;17.13;;
62419;SDS011;48460;51.616;5.426;2022-10-12T10:04:31;42.50;;;17.42;;
62419;SDS011;48460;51.616;5.426;2022-10-12T10:07:20;37.00;;;16.83;;
62419;SDS011;48460;51.616;5.426;2022-10-12T10:09:47;41.38;;;17.50;;
62419;SDS011;48460;51.616;5.426;2022-10-12T10:12:32;35.83;;;18.00;;
62419;SDS011;48460;51.616;5.426;2022-10-12T10:15:28;35.25;;;17.08;;
62419;SDS011;48460;51.616;5.426;2022-10-12T10:18:06;41.28;;;18.85;;
62419;SDS011;48460;51.616;5.426;2022-10-12T10:20:52;39.38;;;17.27;;
62419;SDS011;48460;51.616;5.426;2022-10-12T10:23:26;36.50;;;18.00;;
62419;SDS011;48460;51.616;5.426;2022-10-12T10:26:02;31.85;;;16.75;;
62419;SDS011;48460;51.616;5.426;2022-10-12T10:28:34;42.30;;;18.45;;
62419;SDS011;48460;51.616;5.426;2022-10-12T10:31:05;33.13;;;17.23;;
62419;SDS011;48460;51.616;5.426;2022-10-12T10:33:41;34.55;;;17.67;;
62419;SDS011;48460;51.616;5.426;2022-10-12T10:36:17;34.50;;;18.17;;
62419;SDS011;48460;51.616;5.426;2022-10-12T10:38:58;34.97;;;17.23;;
62419;SDS011;48460;51.616;5.426;2022-10-12T10:41:40;34.10;;;15.83;;
62419;SDS011;48460;51.616;5.426;2022-10-12T10:44:22;34.43;;;15.97;;
62419;SDS011;48460;51.616;5.426;2022-10-12T10:46:53;32.60;;;14.63;;
62419;SDS011;48460;51.616;5.426;2022-10-12T10:49:28;33.72;;;16.05;;
62419;SDS011;48460;51.616;5.426;2022-10-12T10:51:58;31.88;;;13.90;;
62419;SDS011;48460;51.616;5.426;2022-10-12T10:54:27;29.13;;;13.35;;
62419;SDS011;48460;51.616;5.426;2022-10-12T10:57:10;25.35;;;10.38;;
62419;SDS011;48460;51.616;5.426;2022-10-12T11:02:18;25.85;;;11.07;;
62419;SDS011;48460;51.616;5.426;2022-10-12T11:04:59;30.90;;;11.52;;
62419;SDS011;48460;51.616;5.426;2022-10-12T11:07:38;24.88;;;10.63;;
62419;SDS011;48460;51.616;5.426;2022-10-12T11:10:20;32.83;;;12.00;;
62419;SDS011;48460;51.616;5.426;2022-10-12T11:12:56;27.38;;;10.48;;
62419;SDS011;48460;51.616;5.426;2022-10-12T11:21:11;24.60;;;10.32;;
62419;SDS011;48460;51.616;5.426;2022-10-12T11:26:17;21.00;;;8.70;;
62419;SDS011;48460;51.616;5.426;2022-10-12T11:29:10;26.88;;;9.57;;
62419;SDS011;48460;51.616;5.426;2022-10-12T11:31:41;24.30;;;8.70;;
62419;SDS011;48460;51.616;5.426;2022-10-12T11:34:12;19.23;;;7.95;;
62419;SDS011;48460;51.616;5.426;2022-10-12T11:36:42;16.05;;;7.78;;
62419;SDS011;48460;51.616;5.426;2022-10-12T11:39:15;23.77;;;8.52;;
62419;SDS011;48460;51.616;5.426;2022-10-12T11:41:47;18.92;;;8.35;;
62419;SDS011;48460;51.616;5.426;2022-10-12T11:44:16;19.27;;;8.90;;
62419;SDS011;48460;51.616;5.426;2022-10-12T11:46:50;24.30;;;8.65;;
62419;SDS011;48460;51.616;5.426;2022-10-12T11:49:27;21.92;;;8.35;;
62419;SDS011;48460;51.616;5.426;2022-10-12T11:51:56;22.42;;;8.32;;
62419;SDS011;48460;51.616;5.426;2022-10-12T11:57:44;21.98;;;8.00;;
62419;SDS011;48460;51.616;5.426;2022-10-12T12:02:33;17.90;;;8.27;;
62419;SDS011;48460;51.616;5.426;2022-10-12T12:05:05;21.23;;;8.60;;
62419;SDS011;48460;51.616;5.426;2022-10-12T12:15:37;23.77;;;8.60;;
62419;SDS011;48460;51.616;5.426;2022-10-12T12:21:00;23.77;;;8.70;;
62419;SDS011;48460;51.616;5.426;2022-10-12T12:23:38;23.33;;;8.35;;
62419;SDS011;48460;51.616;5.426;2022-10-12T12:28:38;18.50;;;7.72;;
62419;SDS011;48460;51.616;5.426;2022-10-12T12:31:47;19.08;;;7.57;;
62419;SDS011;48460;51.616;5.426;2022-10-12T12:34:06;16.65;;;7.60;;
62419;SDS011;48460;51.616;5.426;2022-10-12T12:36:41;17.25;;;6.32;;
62419;SDS011;48460;51.616;5.426;2022-10-12T12:42:04;18.02;;;6.57;;
62419;SDS011;48460;51.616;5.426;2022-10-12T12:49:37;15.70;;;5.30;;
62419;SDS011;48460;51.616;5.426;2022-10-12T13:01:00;25.52;;;6.15;;
62419;SDS011;48460;51.616;5.426;2022-10-12T13:06:44;20.10;;;6.28;;
62419;SDS011;48460;51.616;5.426;2022-10-12T13:11:57;20.60;;;5.85;;
62419;SDS011;48460;51.616;5.426;2022-10-12T13:20:10;12.15;;;4.10;;
62419;SDS011;48460;51.616;5.426;2022-10-12T13:22:42;12.60;;;3.95;;
62419;SDS011;48460;51.616;5.426;2022-10-12T13:25:12;14.55;;;3.92;;
62419;SDS011;48460;51.616;5.426;2022-10-12T13:27:47;9.70;;;3.83;;
62419;SDS011;48460;51.616;5.426;2022-10-12T13:30:32;17.10;;;4.22;;
62419;SDS011;48460;51.616;5.426;2022-10-12T13:34:04;15.15;;;4.50;;
62419;SDS011;48460;51.616;5.426;2022-10-12T13:36:23;10.25;;;3.95;;
62419;SDS011;48460;51.616;5.426;2022-10-12T13:38:54;16.80;;;4.32;;
62419;SDS011;48460;51.616;5.426;2022-10-12T13:41:22;16.30;;;4.13;;
62419;SDS011;48460;51.616;5.426;2022-10-12T13:49:02;11.77;;;4.35;;
62419;SDS011;48460;51.616;5.426;2022-10-12T13:51:56;17.92;;;4.68;;
62419;SDS011;48460;51.616;5.426;2022-10-12T13:57:02;15.02;;;4.00;;
62419;SDS011;48460;51.616;5.426;2022-10-12T13:59:40;11.75;;;4.18;;
62419;SDS011;48460;51.616;5.426;2022-10-12T14:02:16;13.38;;;4.05;;
62419;SDS011;48460;51.616;5.426;2022-10-12T14:04:45;16.45;;;4.38;;
62419;SDS011;48460;51.616;5.426;2022-10-12T14:07:17;16.10;;;4.55;;
62419;SDS011;48460;51.616;5.426;2022-10-12T14:09:46;14.88;;;4.85;;
62419;SDS011;48460;51.616;5.426;2022-10-12T14:12:15;12.52;;;4.20;;
62419;SDS011;48460;51.616;5.426;2022-10-12T14:14:42;15.30;;;4.10;;
62419;SDS011;48460;51.616;5.426;2022-10-12T14:17:13;13.52;;;4.30;;
62419;SDS011;48460;51.616;5.426;2022-10-12T14:22:04;13.02;;;4.30;;
62419;SDS011;48460;51.616;5.426;2022-10-12T14:24:31;15.93;;;4.40;;
62419;SDS011;48460;51.616;5.426;2022-10-12T14:27:00;12.48;;;4.43;;
62419;SDS011;48460;51.616;5.426;2022-10-12T14:32:05;11.73;;;3.90;;
62419;SDS011;48460;51.616;5.426;2022-10-12T14:35:02;11.65;;;4.20;;
62419;SDS011;48460;51.616;5.426;2022-10-12T14:37:50;12.20;;;3.90;;
62419;SDS011;48460;51.616;5.426;2022-10-12T14:40:50;17.55;;;4.20;;
62419;SDS011;48460;51.616;5.426;2022-10-12T14:45:36;17.10;;;4.60;;
62419;SDS011;48460;51.616;5.426;2022-10-12T14:48:02;16.45;;;4.70;;
62419;SDS011;48460;51.616;5.426;2022-10-12T14:50:30;16.20;;;4.63;;
62419;SDS011;48460;51.616;5.426;2022-10-12T14:52:57;18.08;;;4.30;;
62419;SDS011;48460;51.616;5.426;2022-10-12T14:55:28;16.55;;;4.63;;
62419;SDS011;48460;51.616;5.426;2022-10-12T14:57:55;11.95;;;4.28;;
62419;SDS011;48460;51.616;5.426;2022-10-12T15:00:22;17.45;;;4.35;;
62419;SDS011;48460;51.616;5.426;2022-10-12T15:02:50;13.55;;;4.47;;
62419;SDS011;48460;51.616;5.426;2022-10-12T15:05:17;20.27;;;4.93;;
62419;SDS011;48460;51.616;5.426;2022-10-12T15:07:45;13.65;;;4.57;;
62419;SDS011;48460;51.616;5.426;2022-10-12T15:10:12;19.83;;;4.82;;
62419;SDS011;48460;51.616;5.426;2022-10-12T15:12:38;18.67;;;4.20;;
62419;SDS011;48460;51.616;5.426;2022-10-12T15:17:57;13.70;;;4.38;;
62419;SDS011;48460;51.616;5.426;2022-10-12T15:20:23;19.42;;;5.25;;
62419;SDS011;48460;51.616;5.426;2022-10-12T15:22:50;15.63;;;4.68;;
62419;SDS011;48460;51.616;5.426;2022-10-12T15:25:17;16.45;;;5.47;;
62419;SDS011;48460;51.616;5.426;2022-10-12T15:27:48;15.05;;;4.78;;
62419;SDS011;48460;51.616;5.426;2022-10-12T15:30:14;17.92;;;5.18;;
62419;SDS011;48460;51.616;5.426;2022-10-12T15:32:40;18.65;;;5.15;;
62419;SDS011;48460;51.616;5.426;2022-10-12T15:35:16;11.90;;;4.65;;
62419;SDS011;48460;51.616;5.426;2022-10-12T15:37:47;16.50;;;5.13;;
62419;SDS011;48460;51.616;5.426;2022-10-12T15:40:13;17.48;;;5.28;;
62419;SDS011;48460;51.616;5.426;2022-10-12T15:42:41;13.63;;;5.00;;
62419;SDS011;48460;51.616;5.426;2022-10-12T15:45:30;13.23;;;5.38;;
62419;SDS011;48460;51.616;5.426;2022-10-12T15:47:55;14.50;;;4.90;;
62419;SDS011;48460;51.616;5.426;2022-10-12T15:50:23;11.57;;;5.07;;
62419;SDS011;48460;51.616;5.426;2022-10-12T15:52:50;14.80;;;4.93;;
62419;SDS011;48460;51.616;5.426;2022-10-12T15:55:19;19.15;;;5.40;;
62419;SDS011;48460;51.616;5.426;2022-10-12T15:57:48;18.65;;;5.50;;
62419;SDS011;48460;51.616;5.426;2022-10-12T16:00:15;15.75;;;4.45;;
62419;SDS011;48460;51.616;5.426;2022-10-12T16:02:42;14.18;;;5.53;;
62419;SDS011;48460;51.616;5.426;2022-10-12T16:05:27;19.92;;;5.43;;
62419;SDS011;48460;51.616;5.426;2022-10-12T16:07:56;18.95;;;5.35;;
62419;SDS011;48460;51.616;5.426;2022-10-12T16:10:24;23.92;;;11.05;;
62419;SDS011;48460;51.616;5.426;2022-10-12T16:12:57;27.05;;;10.02;;
62419;SDS011;48460;51.616;5.426;2022-10-12T16:15:28;21.88;;;9.57;;
62419;SDS011;48460;51.616;5.426;2022-10-12T16:18:09;14.82;;;6.20;;
62419;SDS011;48460;51.616;5.426;2022-10-12T16:20:36;17.08;;;7.00;;
62419;SDS011;48460;51.616;5.426;2022-10-12T16:23:04;20.13;;;6.45;;
62419;SDS011;48460;51.616;5.426;2022-10-12T16:25:31;22.48;;;6.55;;
62419;SDS011;48460;51.616;5.426;2022-10-12T16:27:58;16.27;;;5.45;;
62419;SDS011;48460;51.616;5.426;2022-10-12T16:30:24;12.50;;;5.93;;
62419;SDS011;48460;51.616;5.426;2022-10-12T16:32:50;20.35;;;6.55;;
62419;SDS011;48460;51.616;5.426;2022-10-12T16:35:16;20.05;;;5.93;;
62419;SDS011;48460;51.616;5.426;2022-10-12T16:37:42;18.80;;;5.90;;
62419;SDS011;48460;51.616;5.426;2022-10-12T16:40:08;15.35;;;5.88;;
62419;SDS011;48460;51.616;5.426;2022-10-12T16:42:36;18.35;;;6.10;;
62419;SDS011;48460;51.616;5.426;2022-10-12T16:45:02;15.25;;;5.88;;
62419;SDS011;48460;51.616;5.426;2022-10-12T16:47:28;18.50;;;6.60;;
62419;SDS011;48460;51.616;5.426;2022-10-12T16:49:53;15.98;;;6.45;;
62419;SDS011;48460;51.616;5.426;2022-10-12T16:52:20;15.95;;;6.03;;
62419;SDS011;48460;51.616;5.426;2022-10-12T16:54:49;17.05;;;6.93;;